createdAt,value
2023-01-11T00:02:23.009Z,5.53
2023-01-11T00:07:25.795Z,4.50
2023-01-11T00:12:29.967Z,5.33
2023-01-11T00:17:32.742Z,5.67
2023-01-11T00:22:35.436Z,4.80
2023-01-11T00:27:39.523Z,4.50
2023-01-11T00:32:42.461Z,2.77
2023-01-11T00:37:45.165Z,3.10
2023-01-11T00:43:06.850Z,4.50
2023-01-11T00:48:10.704Z,6.83
2023-01-11T00:53:14.366Z,3.97
2023-01-11T00:58:18.503Z,2.00
2023-01-11T01:03:21.179Z,4.65
2023-01-11T01:08:23.937Z,1.52
2023-01-11T01:13:45.317Z,1.80
2023-01-11T01:18:48.045Z,2.72
2023-01-11T01:23:52.376Z,3.00
2023-01-11T01:28:56.571Z,1.63
2023-01-11T01:33:59.404Z,2.42
2023-01-11T01:39:02.279Z,3.60
2023-01-11T01:44:27.229Z,5.90
2023-01-11T01:49:30.031Z,2.23
2023-01-11T01:54:36.977Z,2.10
2023-01-11T01:59:41.521Z,2.83
2023-01-11T02:04:46.054Z,2.70
2023-01-11T02:09:52.513Z,3.13
2023-01-11T02:14:56.723Z,2.87
2023-01-11T02:20:06.216Z,1.50
2023-01-11T02:25:34.879Z,3.17
2023-01-11T02:30:45.603Z,1.03
2023-01-11T02:35:57.132Z,2.50
2023-01-11T02:41:05.106Z,2.87
2023-01-11T02:46:11.610Z,2.40
2023-01-11T02:51:17.598Z,1.33
2023-01-11T02:56:23.147Z,2.13
2023-01-11T03:01:27.363Z,2.17
2023-01-11T03:06:33.439Z,1.80
2023-01-11T03:12:06.573Z,1.13
2023-01-11T03:17:20.326Z,0.73
2023-01-11T03:22:27.061Z,1.90
2023-01-11T03:27:34.534Z,2.60
2023-01-11T03:32:45.932Z,2.17
2023-01-11T03:37:52.006Z,0.80
2023-01-11T03:43:12.117Z,4.13
2023-01-11T03:48:18.926Z,1.60
2023-01-11T03:53:23.726Z,2.50
2023-01-11T03:58:27.384Z,2.40
2023-01-11T04:03:31.612Z,5.27
2023-01-11T04:08:34.365Z,1.17
2023-01-11T04:13:37.141Z,2.10
2023-01-11T04:18:41.693Z,0.60
2023-01-11T04:23:44.421Z,1.70
2023-01-11T04:28:47.348Z,4.00
2023-01-11T04:33:51.389Z,1.47
2023-01-11T04:38:54.120Z,1.73
2023-01-11T04:43:57.595Z,1.80
2023-01-11T04:49:02.113Z,3.13
2023-01-11T04:54:05.108Z,2.60
2023-01-11T04:59:07.815Z,2.13
2023-01-11T05:04:13.526Z,1.07
2023-01-11T05:09:17.569Z,1.58
2023-01-11T05:14:20.351Z,2.00
2023-01-11T05:19:24.559Z,1.47
2023-01-11T05:24:27.325Z,1.48
2023-01-11T05:29:30.413Z,0.80
2023-01-11T05:34:34.981Z,0.93
2023-01-11T05:39:37.723Z,1.20
2023-01-11T05:44:58.340Z,1.77
2023-01-11T05:50:02.384Z,0.63
2023-01-11T05:55:05.864Z,1.88
2023-01-11T06:00:09.946Z,1.83
2023-01-11T06:05:14.041Z,2.08
2023-01-11T06:10:17.399Z,0.98
2023-01-11T06:15:20.110Z,1.58
2023-01-11T06:20:24.174Z,2.07
2023-01-11T06:25:26.997Z,4.50
2023-01-11T06:30:29.752Z,0.80
2023-01-11T06:35:34.542Z,1.10
2023-01-11T06:40:38.070Z,4.55
2023-01-11T06:45:41.130Z,1.10
2023-01-11T06:50:45.295Z,2.92
2023-01-11T06:55:50.829Z,1.20
2023-01-11T07:00:55.193Z,1.20
2023-01-11T07:05:59.585Z,1.48
2023-01-11T07:11:07.870Z,0.90
2023-01-11T07:16:10.676Z,0.87
2023-01-11T07:21:14.835Z,0.90
2023-01-11T07:26:17.784Z,2.27
2023-01-11T07:31:20.594Z,1.77
2023-01-11T07:36:24.726Z,1.80
2023-01-11T07:41:41.366Z,1.40
2023-01-11T07:46:47.621Z,0.80
2023-01-11T07:51:52.707Z,0.95
2023-01-11T07:56:56.578Z,0.93
2023-01-11T08:01:59.312Z,0.60
2023-01-11T08:07:03.399Z,1.77
2023-01-11T08:12:24.222Z,1.75
2023-01-11T08:17:27.100Z,0.93
2023-01-11T08:22:31.251Z,0.80
2023-01-11T08:27:34.013Z,2.50
2023-01-11T08:32:36.747Z,1.60
2023-01-11T08:37:40.834Z,1.15
2023-01-11T08:42:43.616Z,0.60
2023-01-11T08:47:46.984Z,1.75
2023-01-11T08:52:52.086Z,0.70
2023-01-11T08:57:54.826Z,0.45
2023-01-11T09:02:57.680Z,0.68
2023-01-11T09:08:01.764Z,0.82
2023-01-11T09:13:04.844Z,1.20
2023-01-11T09:18:07.667Z,0.75
2023-01-11T09:23:11.716Z,0.70
2023-01-11T09:28:14.462Z,0.40
2023-01-11T09:33:17.276Z,0.30
2023-01-11T09:38:21.702Z,0.43
2023-01-11T09:43:27.285Z,1.10
2023-01-11T09:48:35.288Z,0.68
2023-01-11T09:53:40.749Z,0.30
2023-01-11T09:58:53.507Z,1.98
2023-01-11T10:04:23.942Z,0.30
2023-01-11T10:18:32.990Z,0.40
2023-01-11T10:20:35.291Z,0.40
2023-01-11T10:25:46.447Z,0.82
2023-01-11T10:31:06.707Z,0.98
2023-01-11T10:36:34.607Z,0.95
2023-01-11T10:41:52.217Z,1.65
2023-01-11T10:46:55.691Z,0.52
2023-01-11T10:52:01.811Z,0.40
2023-01-11T10:57:14.061Z,0.88
2023-01-11T11:02:29.596Z,0.77
2023-01-11T11:07:39.336Z,0.60
2023-01-11T11:12:49.854Z,0.40
2023-01-11T11:17:53.920Z,0.30
2023-01-11T11:22:57.929Z,0.35
2023-01-11T11:28:05.019Z,0.20
2023-01-11T11:33:10.219Z,1.17
2023-01-11T11:38:22.003Z,0.57
2023-01-11T11:43:27.580Z,0.77
2023-01-11T11:48:31.963Z,1.83
2023-01-11T11:53:38.281Z,0.45
2023-01-11T11:58:43.100Z,1.13
2023-01-11T12:03:46.110Z,0.57
2023-01-11T12:08:48.837Z,1.85
2023-01-11T12:14:03.013Z,0.45
2023-01-11T12:19:26.197Z,0.40
2023-01-11T12:24:28.922Z,1.17
2023-01-11T12:29:48.780Z,0.45
2023-01-11T12:35:06.427Z,0.30
2023-01-11T12:40:14.957Z,0.28
2023-01-11T12:45:24.626Z,0.32
2023-01-11T12:50:30.151Z,0.22
2023-01-11T12:55:41.692Z,0.28
2023-01-11T13:01:13.155Z,0.30
2023-01-11T13:06:18.545Z,0.20
2023-01-11T13:11:37.076Z,0.20
2023-01-11T13:16:44.570Z,0.40
2023-01-11T13:21:53.355Z,1.02
2023-01-11T13:26:59.793Z,0.70
2023-01-11T13:32:06.494Z,1.13
2023-01-11T13:37:13.716Z,0.57
2023-01-11T13:42:19.737Z,0.65
2023-01-11T13:47:27.858Z,0.32
2023-01-11T13:52:44.373Z,0.63
2023-01-11T13:57:51.615Z,0.77
2023-01-11T14:03:01.438Z,0.40
2023-01-11T14:08:16.480Z,0.35
2023-01-11T14:14:06.218Z,3.13
2023-01-11T14:19:18.189Z,0.50
2023-01-11T14:24:21.714Z,0.88
2023-01-11T14:29:59.208Z,0.38
2023-01-11T14:35:32.648Z,0.85
2023-01-11T14:41:15.162Z,1.10
2023-01-11T14:46:42.931Z,0.30
2023-01-11T14:51:55.924Z,0.38
2023-01-11T14:56:59.461Z,0.57
2023-01-11T15:02:29.886Z,1.17
2023-01-11T15:07:42.494Z,0.45
2023-01-11T15:12:45.280Z,0.77
2023-01-11T15:18:12.542Z,0.35
2023-01-11T15:23:18.093Z,0.55
2023-01-11T15:28:35.377Z,0.73
2023-01-11T15:33:48.245Z,0.85
2023-01-11T15:38:55.144Z,0.32
2023-01-11T15:44:14.401Z,0.98
2023-01-11T15:49:55.431Z,0.88
2023-01-11T15:55:23.121Z,0.70
2023-01-11T16:00:39.313Z,1.55
2023-01-11T16:05:44.063Z,1.58
2023-01-11T16:10:54.911Z,1.38
2023-01-11T16:16:07.956Z,4.45
2023-01-11T16:21:13.251Z,1.88
2023-01-11T16:26:18.562Z,1.10
2023-01-11T16:31:21.742Z,1.25
2023-01-11T16:36:24.929Z,0.70
2023-01-11T16:41:33.747Z,0.52
2023-01-11T16:47:16.877Z,0.77
2023-01-11T16:52:45.470Z,1.83
2023-01-11T16:57:53.576Z,1.52
2023-01-11T17:03:18.678Z,1.63
2023-01-11T17:08:32.941Z,1.20
2023-01-11T17:13:54.870Z,0.88
2023-01-11T17:18:59.952Z,0.65
2023-01-11T17:24:04.516Z,1.45
2023-01-11T17:29:08.793Z,2.25
2023-01-11T17:34:18.478Z,1.08
2023-01-11T17:39:28.269Z,1.25
2023-01-11T17:44:50.118Z,1.73
2023-01-11T17:49:54.137Z,0.70
2023-01-11T17:55:04.803Z,1.00
2023-01-11T18:00:25.829Z,0.77
2023-01-11T18:05:30.572Z,1.00
2023-01-11T18:10:36.231Z,1.38
2023-01-11T18:15:40.363Z,1.02
2023-01-11T18:20:43.355Z,2.05
2023-01-11T18:25:46.871Z,2.35
2023-01-11T18:30:54.065Z,2.20
2023-01-11T18:35:59.702Z,4.47
2023-01-11T18:41:25.980Z,2.63
2023-01-11T18:46:30.075Z,1.95
2023-01-11T18:51:34.736Z,2.63
2023-01-11T18:56:37.437Z,1.95
2023-01-11T19:01:54.563Z,2.00
2023-01-11T19:07:04.177Z,2.20
2023-01-11T19:12:07.633Z,2.97
2023-01-11T19:17:12.783Z,1.77
2023-01-11T19:22:15.626Z,1.90
2023-01-11T19:27:19.023Z,3.13
2023-01-11T19:32:25.011Z,5.30
2023-01-11T19:37:29.963Z,2.95
2023-01-11T19:42:32.747Z,3.70
2023-01-11T19:47:36.843Z,5.25
2023-01-11T19:52:39.616Z,7.63
2023-01-11T19:57:42.390Z,4.55
2023-01-11T20:02:46.593Z,2.78
2023-01-11T20:07:49.504Z,4.05
2023-01-11T20:12:52.223Z,6.07
2023-01-11T20:17:56.347Z,2.80
2023-01-11T20:22:59.063Z,7.22
2023-01-11T20:28:01.810Z,4.57
2023-01-11T20:33:06.468Z,2.35
2023-01-11T20:38:09.215Z,5.45
2023-01-11T20:43:12.138Z,6.18
2023-01-11T20:48:16.199Z,5.13
2023-01-11T20:53:18.907Z,3.88
2023-01-11T20:58:21.909Z,6.63
2023-01-11T21:03:26.384Z,3.92
2023-01-11T21:08:29.157Z,6.15
2023-01-11T21:13:32.066Z,8.32
2023-01-11T21:18:37.143Z,2.80
2023-01-11T21:23:40.009Z,4.05
2023-01-11T21:28:43.597Z,2.85
2023-01-11T21:33:47.938Z,6.28
2023-01-11T21:38:50.869Z,5.00
2023-01-11T21:43:53.635Z,13.75
2023-01-11T21:48:57.692Z,3.28
2023-01-11T21:54:00.792Z,7.68
2023-01-11T21:59:03.933Z,9.50
2023-01-11T22:04:08.781Z,4.05
2023-01-11T22:09:12.691Z,7.90
2023-01-11T22:14:15.443Z,4.55
2023-01-11T22:19:19.604Z,6.53
2023-01-11T22:24:22.449Z,4.25
2023-01-11T22:29:25.308Z,4.07
2023-01-11T22:34:29.424Z,4.18
2023-01-11T22:39:32.234Z,8.15
2023-01-11T22:44:34.967Z,3.17
2023-01-11T22:49:39.346Z,3.95
2023-01-11T22:54:42.459Z,5.70
2023-01-11T22:59:45.235Z,3.42
2023-01-11T23:04:49.387Z,3.47
2023-01-11T23:09:52.215Z,2.88
2023-01-11T23:14:54.948Z,4.32
2023-01-11T23:19:59.032Z,5.35
2023-01-11T23:25:01.771Z,3.10
2023-01-11T23:30:05.109Z,4.30
2023-01-11T23:35:10.051Z,5.47
2023-01-11T23:40:13.403Z,2.53
2023-01-11T23:45:16.476Z,3.20
2023-01-11T23:50:20.931Z,6.55
2023-01-11T23:55:23.739Z,5.38
